»·PEaware :: N20791 49X-L52

N20791 :: 49X-L52

FLIGHT INFORMATION

Flight Status: Arrived
Operator: Privately registered:
United States
More flights under this callsign
Pilot: Russell T. (852)
Aircraft: CESSNA 182 SKYLANE
(C182)
More flights by this aircraft type
Origin: 49X Chemehuevi Valley
United States
Destination: L52 Oceano Co
United States
More flights between these airports :: More routes between these airports
Route: CLIPP V12 GVO ORCUT
File this flight plan on PilotEdge
Remarks: alpha
Altitude:
(Current/Filed)
10,500ft
Speed:
(Current/Filed)
130kts
Departed: 22-Nov-17 06:56 PM
Arrived: 22-Nov-17 09:32 PM
Distance/Time
Traveled:
307nm/2:36
Distance/Time
To Go:
Arrived

Flight Plot

Page will automatically refresh every two minutes.

Flight plan parsing failed; only flown route is shown


Map Options




Map Legend


Flown Route
Filed Route
Departure Airport
Arrival Airport
Navaid (VOR, NDB)
Fix

Horizontal Profiles

Position Reports

Time Latitude Longitude Heading Altitude Ground
Speed
22-Nov-17 18:57 34.527585 -114.430491 245 634ft 0kts
22-Nov-17 18:58 34.526497 -114.430939 172 634ft 14kts
22-Nov-17 18:59 34.521148 -114.429927 122 634ft 8kts
22-Nov-17 19:00 34.520850 -114.429872 250 634ft 0kts
22-Nov-17 19:01 34.529322 -114.431109 350 760ft 73kts
22-Nov-17 19:02 34.552443 -114.434051 333 1377ft 107kts
22-Nov-17 19:03 34.553905 -114.471643 260 1817ft 130kts
22-Nov-17 19:04 34.529680 -114.503376 223 2339ft 123kts
22-Nov-17 19:05 34.525097 -114.539117 269 3328ft 102kts
22-Nov-17 19:06 34.525178 -114.571270 278 4320ft 87kts
22-Nov-17 19:07 34.543345 -114.586607 332 5114ft 90kts
22-Nov-17 19:08 34.568881 -114.599153 340 5730ft 106kts
22-Nov-17 19:09 34.597125 -114.612455 324 6332ft 110kts
22-Nov-17 19:10 34.614810 -114.642345 296 6928ft 109kts
22-Nov-17 19:11 34.628096 -114.674946 296 7586ft 102kts
22-Nov-17 19:12 34.639511 -114.703125 294 8366ft 82kts
22-Nov-17 19:13 34.647765 -114.725259 300 8523ft 69kts
22-Nov-17 19:14 34.656371 -114.746532 272 8280ft 69kts
22-Nov-17 19:15 34.667040 -114.779184 307 8395ft 111kts
22-Nov-17 19:16 34.682685 -114.810125 297 8964ft 104kts
22-Nov-17 19:17 34.695507 -114.841051 296 9563ft 100kts
22-Nov-17 19:18 34.707435 -114.870494 295 10166ft 93kts
22-Nov-17 19:19 34.719215 -114.899620 296 10519ft 111kts
22-Nov-17 19:20 34.732076 -114.931319 296 10509ft 135kts
22-Nov-17 19:21 34.749174 -114.973621 296 10506ft 142kts
22-Nov-17 19:22 34.769623 -115.024345 296 10506ft 143kts
22-Nov-17 19:23 34.783352 -115.069220 281 10497ft 143kts
22-Nov-17 19:24 34.781274 -115.117480 266 10508ft 143kts
22-Nov-17 19:25 34.780717 -115.157909 270 10505ft 143kts
22-Nov-17 19:26 34.781400 -115.214529 271 10505ft 143kts
22-Nov-17 19:27 34.782076 -115.255126 271 10506ft 143kts
22-Nov-17 19:28 34.782900 -115.303661 271 10506ft 143kts
22-Nov-17 19:29 34.783711 -115.352187 271 10505ft 143kts
22-Nov-17 19:30 34.784511 -115.400357 271 10499ft 139kts
22-Nov-17 19:31 34.785256 -115.447028 271 10502ft 137kts
22-Nov-17 19:32 34.785970 -115.493324 271 10505ft 137kts
22-Nov-17 19:33 34.786675 -115.539744 271 10506ft 137kts
22-Nov-17 19:34 34.787358 -115.585985 270 10507ft 137kts
22-Nov-17 19:35 34.788029 -115.632476 270 10506ft 137kts
22-Nov-17 19:36 34.788681 -115.678833 270 10506ft 137kts
22-Nov-17 19:37 34.789315 -115.725180 270 10506ft 137kts
22-Nov-17 19:38 34.789934 -115.771688 270 10506ft 137kts
22-Nov-17 19:39 34.790532 -115.818039 270 10506ft 137kts
22-Nov-17 19:40 34.791115 -115.864541 270 10506ft 137kts
22-Nov-17 19:41 34.791679 -115.910903 270 10506ft 137kts
22-Nov-17 19:42 34.792225 -115.957272 270 10506ft 137kts
22-Nov-17 19:43 34.792755 -116.003789 270 10506ft 137kts
22-Nov-17 19:44 34.793266 -116.050172 270 10507ft 137kts
22-Nov-17 19:45 34.793760 -116.096578 270 10506ft 137kts
22-Nov-17 19:46 34.794238 -116.143080 270 10505ft 137kts
22-Nov-17 19:47 34.794696 -116.189405 270 10506ft 137kts
22-Nov-17 19:48 34.795137 -116.235885 270 10506ft 137kts
22-Nov-17 19:49 34.795558 -116.282217 270 10506ft 137kts
22-Nov-17 19:50 34.795962 -116.328554 270 10505ft 137kts
22-Nov-17 19:51 34.796350 -116.375046 270 10506ft 137kts
22-Nov-17 19:52 34.796720 -116.421436 270 10506ft 137kts
22-Nov-17 19:53 34.796601 -116.467846 262 10504ft 137kts
22-Nov-17 19:54 34.791955 -116.514059 262 10506ft 137kts
22-Nov-17 19:55 34.787477 -116.560148 262 10506ft 137kts
22-Nov-17 19:56 34.782943 -116.606385 262 10507ft 137kts
22-Nov-17 19:57 34.778386 -116.652443 262 10506ft 137kts
22-Nov-17 19:58 34.773825 -116.698492 262 10506ft 137kts
22-Nov-17 19:59 34.769244 -116.744714 262 10506ft 137kts
22-Nov-17 20:00 34.764689 -116.790815 262 10506ft 137kts
22-Nov-17 20:01 34.760110 -116.836905 262 10506ft 137kts
22-Nov-17 20:02 34.755466 -116.883146 262 10505ft 137kts
22-Nov-17 20:03 34.750834 -116.929236 262 10506ft 137kts
22-Nov-17 20:04 34.746192 -116.975333 262 10506ft 137kts
22-Nov-17 20:05 34.741529 -117.021545 262 10506ft 137kts
22-Nov-17 20:06 34.736901 -117.067630 262 10506ft 137kts
22-Nov-17 20:07 34.732160 -117.113825 262 10506ft 137kts
22-Nov-17 20:08 34.727427 -117.159875 262 10506ft 137kts
22-Nov-17 20:09 34.722654 -117.205930 262 10507ft 137kts
22-Nov-17 20:10 34.717895 -117.252133 262 10506ft 137kts
22-Nov-17 20:11 34.713128 -117.298193 262 10507ft 137kts
22-Nov-17 20:12 34.708330 -117.344401 262 10506ft 137kts
22-Nov-17 20:13 34.703521 -117.390472 262 10506ft 137kts
22-Nov-17 20:14 34.698707 -117.436522 262 10506ft 137kts
22-Nov-17 20:15 34.693901 -117.482735 262 10506ft 137kts
22-Nov-17 20:16 34.689114 -117.528802 262 10506ft 137kts
22-Nov-17 20:17 34.684180 -117.574854 262 10506ft 137kts
22-Nov-17 20:18 34.679267 -117.621062 262 10506ft 137kts
22-Nov-17 20:19 34.674366 -117.667124 262 10506ft 137kts
22-Nov-17 20:20 34.669416 -117.713328 262 10506ft 137kts
22-Nov-17 20:21 34.664474 -117.759391 262 10507ft 137kts
22-Nov-17 20:22 34.659498 -117.805435 262 10506ft 137kts
22-Nov-17 20:23 34.654538 -117.851656 262 10505ft 137kts
22-Nov-17 20:24 34.649525 -117.897706 262 10506ft 137kts
22-Nov-17 20:25 34.644507 -117.943768 262 10506ft 137kts
22-Nov-17 20:26 34.639454 -117.989960 262 10506ft 137kts
22-Nov-17 20:27 34.634410 -118.036022 262 10506ft 137kts
22-Nov-17 20:28 34.629822 -118.082280 265 10506ft 137kts
22-Nov-17 20:29 34.627105 -118.128614 265 10506ft 137kts
22-Nov-17 20:30 34.624113 -118.174970 265 10506ft 137kts
22-Nov-17 20:31 34.621090 -118.221442 265 10506ft 137kts
22-Nov-17 20:32 34.618006 -118.267751 265 10506ft 137kts
22-Nov-17 20:33 34.614918 -118.314208 265 10506ft 137kts
22-Nov-17 20:34 34.611763 -118.360493 265 10506ft 137kts
22-Nov-17 20:35 34.606824 -118.406324 262 10504ft 136kts
22-Nov-17 20:36 34.603138 -118.451937 268 10506ft 136kts
22-Nov-17 20:37 34.601726 -118.498043 264 10507ft 137kts
22-Nov-17 20:38 34.598038 -118.544093 264 10507ft 137kts
22-Nov-17 20:39 34.595083 -118.590461 264 10507ft 137kts
22-Nov-17 20:40 34.591844 -118.636684 263 10506ft 137kts
22-Nov-17 20:41 34.588391 -118.682842 264 10506ft 137kts
22-Nov-17 20:42 34.585547 -118.729271 263 10507ft 137kts
22-Nov-17 20:43 34.582525 -118.775364 266 10506ft 137kts
22-Nov-17 20:44 34.578565 -118.821505 258 10504ft 136kts
22-Nov-17 20:45 34.573618 -118.867039 258 10504ft 135kts
22-Nov-17 20:46 34.569744 -118.912350 260 10505ft 134kts
22-Nov-17 20:47 34.566132 -118.957564 265 10505ft 134kts
22-Nov-17 20:48 34.564369 -119.003218 264 10507ft 136kts
22-Nov-17 20:49 34.561348 -119.049076 264 10507ft 136kts
22-Nov-17 20:50 34.558019 -119.095172 261 10506ft 136kts
22-Nov-17 20:51 34.554813 -119.141133 264 10506ft 137kts
22-Nov-17 20:52 34.552063 -119.187272 264 10506ft 137kts
22-Nov-17 20:53 34.548748 -119.233591 263 10506ft 137kts
22-Nov-17 20:54 34.545238 -119.279739 263 10506ft 137kts
22-Nov-17 20:55 34.541819 -119.326044 263 10506ft 137kts
22-Nov-17 20:56 34.538388 -119.372213 264 10506ft 137kts
22-Nov-17 20:57 34.534881 -119.418382 261 10506ft 137kts
22-Nov-17 20:58 34.531100 -119.464608 263 10505ft 137kts
22-Nov-17 20:59 34.527835 -119.510786 263 10506ft 137kts
22-Nov-17 21:00 34.524201 -119.556919 262 10506ft 137kts
22-Nov-17 21:01 34.520674 -119.603209 263 10506ft 137kts
22-Nov-17 21:02 34.517066 -119.649340 262 10506ft 137kts
22-Nov-17 21:03 34.513298 -119.695578 262 10506ft 137kts
22-Nov-17 21:04 34.509570 -119.741661 260 10506ft 137kts
22-Nov-17 21:05 34.506878 -119.787168 270 10513ft 135kts
22-Nov-17 21:06 34.510380 -119.832881 273 10508ft 136kts
22-Nov-17 21:07 34.513942 -119.878722 272 10507ft 136kts
22-Nov-17 21:08 34.517385 -119.924665 273 10507ft 137kts
22-Nov-17 21:09 34.521105 -119.970874 267 10507ft 137kts
22-Nov-17 21:10 34.517092 -120.012020 242 10497ft 104kts
22-Nov-17 21:11 34.518894 -120.043672 293 10523ft 99kts
22-Nov-17 21:12 34.529878 -120.081425 279 10510ft 131kts
22-Nov-17 21:13 34.555036 -120.112950 322 10509ft 136kts
22-Nov-17 21:14 34.585620 -120.140951 322 10508ft 138kts
22-Nov-17 21:15 34.616256 -120.169070 322 10506ft 138kts
22-Nov-17 21:16 34.646935 -120.197307 322 10421ft 143kts
22-Nov-17 21:17 34.680588 -120.228284 322 9707ft 153kts
22-Nov-17 21:18 34.714707 -120.259736 322 9009ft 154kts
22-Nov-17 21:19 34.748777 -120.291174 322 8307ft 153kts
22-Nov-17 21:20 34.782796 -120.322597 322 7606ft 152kts
22-Nov-17 21:21 34.816508 -120.353770 322 6906ft 152kts
22-Nov-17 21:22 34.849138 -120.383973 322 6495ft 134kts
22-Nov-17 21:23 34.876803 -120.409921 322 6505ft 121kts
22-Nov-17 21:24 34.904136 -120.435664 322 6185ft 121kts
22-Nov-17 21:25 34.930481 -120.460480 322 5756ft 118kts
22-Nov-17 21:26 34.956261 -120.484829 322 5351ft 116kts
22-Nov-17 21:27 34.981790 -120.508947 322 4949ft 115kts
22-Nov-17 21:28 35.007160 -120.532926 322 4546ft 114kts
22-Nov-17 21:29 35.031673 -120.557198 304 4136ft 113kts
22-Nov-17 21:30 35.016875 -120.573388 142 3729ft 97kts
22-Nov-17 21:31 35.022723 -120.545478 48 3179ft 102kts
22-Nov-17 21:32 35.045802 -120.525890 352 2405ft 106kts
22-Nov-17 21:33 35.063793 -120.547599 301 1591ft 85kts
22-Nov-17 21:34 35.074427 -120.568664 301 1051ft 58kts
22-Nov-17 21:35 35.083702 -120.588820 300 976ft 72kts
22-Nov-17 21:36 35.094860 -120.611089 304 389ft 77kts
22-Nov-17 21:37 35.102067 -120.624623 324 17ft 7kts
22-Nov-17 21:38 35.103349 -120.624532 127 17ft 8kts
22-Nov-17 21:39 35.103011 -120.623445 26 17ft 0kts
22-Nov-17 21:40 35.103012 -120.623444 26 17ft 0kts
22-Nov-17 21:41 35.103012 -120.623444 26 17ft 0kts

Navigation Log

Ident Type
Flight plan parsing failed, navigation log unavailable